Time;durP1;ratioP1;P1;durP2;ratioP2;P2;SDS_P1;SDS_P2;PMS_P1;PMS_P2;Temp;Humidity;BMP_temperature;BMP_pressure;BME280_temperature;BME280_humidity;BME280_pressure;Samples;Min_cycle;Max_cycle;Signal;HPM_P1;HPM_P2
2023/07/10 00:01:00;;;;;;;4.32;2.42;;;;;;;19.61;51.63;94448.25;5061835;28;20028;-79
2023/07/10 00:03:28;;;;;;;5.30;2.25;;;;;;;19.61;52.24;94437.44;5061931;28;20377;-79
2023/07/10 00:05:55;;;;;;;6.20;2.38;;;;;;;19.62;52.49;94437.09;5061725;28;20040;-79
2023/07/10 00:08:20;;;;;;;7.82;2.22;;;;;;;19.58;53.44;94432.72;5061917;28;20200;-79
2023/07/10 00:10:46;;;;;;;4.28;2.17;;;;;;;19.54;53.75;94434.59;5061908;28;20028;-78
2023/07/10 00:13:12;;;;;;;6.05;2.80;;;;;;;19.53;54.50;94438.44;5062659;28;20036;-78
2023/07/10 00:15:39;;;;;;;10.60;2.88;;;;;;;19.52;54.66;94428.75;5065034;28;20017;-77
2023/07/10 00:18:12;;;;;;;5.05;2.20;;;;;;;19.53;55.10;94424.91;5065170;28;20033;-78
2023/07/10 00:20:38;;;;;;;7.38;2.85;;;;;;;19.47;55.17;94434.44;5065299;28;20032;-78
2023/07/10 00:23:03;;;;;;;10.85;2.72;;;;;;;19.41;56.31;94429.31;5065685;28;20021;-78
2023/07/10 00:25:28;;;;;;;8.02;2.85;;;;;;;19.34;56.17;94434.59;5065106;28;20048;-78
2023/07/10 00:27:54;;;;;;;4.28;2.20;;;;;;;19.28;56.65;94438.72;5065173;28;20200;-78
2023/07/10 00:30:22;;;;;;;6.15;2.30;;;;;;;19.23;56.83;94442.47;5064966;28;20067;-77
2023/07/10 00:32:53;;;;;;;6.13;2.70;;;;;;;19.17;56.82;94443.91;5065288;28;20086;-77
2023/07/10 00:35:24;;;;;;;4.90;2.72;;;;;;;19.17;56.77;94443.09;5064965;28;20017;-78
2023/07/10 00:38:01;;;;;;;6.10;2.20;;;;;;;19.06;56.93;94448.28;5064939;28;20096;-78
2023/07/10 00:40:31;;;;;;;6.47;2.50;;;;;;;19.07;55.64;94439.03;5064809;28;20052;-78
2023/07/10 00:43:04;;;;;;;4.97;2.60;;;;;;;19.00;55.75;94452.38;5064593;28;20131;-77
2023/07/10 00:45:30;;;;;;;4.75;2.28;;;;;;;18.95;55.98;94444.53;5064455;28;20033;-77
2023/07/10 00:48:10;;;;;;;5.97;2.35;;;;;;;18.96;56.36;94438.78;5064812;28;20037;-78
2023/07/10 00:50:48;;;;;;;5.65;2.70;;;;;;;18.85;56.98;94443.19;5063200;28;20033;-77
2023/07/10 00:53:23;;;;;;;12.45;2.47;;;;;;;18.83;57.88;94445.44;5064306;28;20049;-77
2023/07/10 00:55:52;;;;;;;5.13;2.53;;;;;;;18.83;58.46;94440.03;5064593;28;20013;-77
2023/07/10 00:58:37;;;;;;;5.65;2.70;;;;;;;18.75;58.63;94438.28;5064485;28;20021;-77
2023/07/10 01:01:13;;;;;;;7.10;2.40;;;;;;;18.69;58.22;94434.28;5064668;28;20033;-77
2023/07/10 01:03:40;;;;;;;4.43;2.58;;;;;;;18.72;58.08;94436.28;5064569;28;20024;-76
2023/07/10 01:06:12;;;;;;;8.98;2.20;;;;;;;18.69;58.00;94440.47;5064230;28;20083;-77
2023/07/10 01:08:41;;;;;;;8.82;2.38;;;;;;;18.67;58.04;94437.31;5064461;28;20025;-78
2023/07/10 01:11:06;;;;;;;3.70;2.20;;;;;;;18.60;57.95;94432.56;5064314;28;20083;-77
2023/07/10 01:13:34;;;;;;;6.00;2.10;;;;;;;18.65;56.74;94429.56;5064354;28;20021;-78
2023/07/10 01:16:00;;;;;;;3.92;2.40;;;;;;;18.59;56.36;94433.66;5064071;28;20032;-78
2023/07/10 01:18:26;;;;;;;5.00;2.70;;;;;;;18.55;57.22;94434.72;5064066;28;20017;-77
2023/07/10 01:21:07;;;;;;;4.40;2.30;;;;;;;18.61;56.57;94434.09;5064078;28;20026;-78
2023/07/10 01:23:32;;;;;;;3.80;2.20;;;;;;;18.53;57.23;94429.66;5063907;28;20040;-78
2023/07/10 01:26:01;;;;;;;4.43;2.42;;;;;;;18.47;57.53;94433.00;5063716;28;20021;-77
2023/07/10 01:28:26;;;;;;;3.60;2.38;;;;;;;18.47;57.36;94433.00;5063825;28;20020;-78
2023/07/10 01:30:55;;;;;;;5.32;1.70;;;;;;;18.45;56.98;94430.63;5063821;28;20223;-78
2023/07/10 01:33:26;;;;;;;4.55;2.22;;;;;;;18.38;57.21;94431.25;5063774;28;20016;-78
2023/07/10 01:35:55;;;;;;;4.78;3.17;;;;;;;18.34;58.39;94437.66;5064018;28;20101;-78
2023/07/10 01:38:26;;;;;;;3.75;2.08;;;;;;;18.34;57.87;94432.28;5063737;28;20315;-78
2023/07/10 01:40:54;;;;;;;8.32;3.05;;;;;;;18.33;58.38;94430.72;5063453;28;20021;-79
2023/07/10 01:43:19;;;;;;;4.13;2.30;;;;;;;18.28;58.81;94436.38;5063571;28;20096;-78
2023/07/10 01:45:47;;;;;;;7.72;2.80;;;;;;;18.21;59.29;94429.66;5063410;28;20028;-78
2023/07/10 01:48:15;;;;;;;3.60;2.20;;;;;;;18.21;59.46;94431.59;5063527;28;20056;-79
2023/07/10 01:50:41;;;;;;;4.63;2.38;;;;;;;18.16;59.96;94426.47;5063188;28;20092;-79
2023/07/10 01:53:09;;;;;;;4.30;2.70;;;;;;;18.12;59.83;94439.84;5063289;28;20075;-79
2023/07/10 01:55:43;;;;;;;8.43;3.03;;;;;;;18.11;59.96;94432.88;5063584;28;20020;-79
2023/07/10 01:58:11;;;;;;;8.52;2.58;;;;;;;18.00;60.08;94434.53;5063267;28;20040;-79
2023/07/10 02:00:36;;;;;;;4.63;2.92;;;;;;;17.92;61.17;94435.47;5063356;28;20372;-79
2023/07/10 02:03:02;;;;;;;6.53;2.55;;;;;;;17.92;61.45;94441.63;5063343;28;20036;-79
2023/07/10 02:05:27;;;;;;;6.30;2.67;;;;;;;17.91;61.30;94444.69;5063167;28;20355;-79
2023/07/10 02:07:53;;;;;;;7.25;2.75;;;;;;;17.86;61.71;94436.84;5063291;28;20100;-79
2023/07/10 02:10:18;;;;;;;7.32;3.00;;;;;;;17.80;61.43;94441.66;5063287;28;20021;-79
2023/07/10 02:12:43;;;;;;;8.85;3.20;;;;;;;17.76;61.74;94446.97;5062952;28;20027;-79
2023/07/10 02:15:09;;;;;;;6.03;3.20;;;;;;;17.69;62.84;94443.28;5063327;28;20032;-79
2023/07/10 02:17:35;;;;;;;3.85;2.58;;;;;;;17.63;63.37;94437.38;5063151;28;20059;-78
2023/07/10 02:20:00;;;;;;;6.28;2.95;;;;;;;17.54;64.05;94436.72;5063371;28;20055;-79
2023/07/10 02:22:26;;;;;;;4.53;3.05;;;;;;;17.45;64.49;94450.34;5062958;28;20241;-79
2023/07/10 02:24:51;;;;;;;8.15;3.13;;;;;;;17.41;64.68;94444.06;5062839;28;20040;-79
2023/07/10 02:27:16;;;;;;;6.63;2.95;;;;;;;17.34;65.54;94444.66;5062928;28;20131;-79
2023/07/10 02:29:42;;;;;;;7.63;2.97;;;;;;;17.31;65.91;94456.09;5062696;28;20035;-78
2023/07/10 02:32:07;;;;;;;11.90;3.22;;;;;;;17.32;66.28;94449.59;5062831;28;20250;-78
2023/07/10 02:34:33;;;;;;;7.88;3.00;;;;;;;17.28;66.75;94450.59;5063065;28;20032;-79
2023/07/10 02:36:58;;;;;;;5.32;2.83;;;;;;;17.24;66.75;94453.22;5062062;28;20024;-79
2023/07/10 02:39:24;;;;;;;7.28;3.38;;;;;;;17.14;66.80;94454.47;5062571;28;20025;-78
2023/07/10 02:41:49;;;;;;;18.63;4.15;;;;;;;17.13;67.60;94460.19;5062735;28;20060;-78
2023/07/10 02:44:15;;;;;;;12.02;3.20;;;;;;;17.08;68.13;94463.13;5062546;28;20052;-78
2023/07/10 02:46:40;;;;;;;11.45;3.35;;;;;;;17.01;68.17;94459.06;5061100;28;20323;-78
2023/07/10 02:49:05;;;;;;;11.73;3.47;;;;;;;16.96;68.77;94462.00;5062649;28;20726;-78
2023/07/10 02:51:31;;;;;;;10.77;3.80;;;;;;;16.87;68.82;94466.72;5062668;28;20233;-79
2023/07/10 02:53:56;;;;;;;10.57;3.67;;;;;;;16.81;69.47;94468.88;5062245;28;20150;-77
2023/07/10 02:56:22;;;;;;;6.90;3.05;;;;;;;16.79;69.68;94472.97;5062787;28;20025;-79
2023/07/10 02:58:51;;;;;;;10.15;3.53;;;;;;;16.76;69.77;94469.06;5062098;28;20258;-78
2023/07/10 03:01:16;;;;;;;9.00;3.45;;;;;;;16.69;69.86;94474.22;5062147;28;20331;-79
2023/07/10 03:03:45;;;;;;;5.15;2.95;;;;;;;16.71;70.44;94476.56;5062272;28;20032;-78
2023/07/10 03:06:11;;;;;;;19.85;4.25;;;;;;;16.70;70.28;94469.63;5062319;28;20119;-78
2023/07/10 03:08:37;;;;;;;11.63;3.85;;;;;;;16.68;70.62;94479.94;5062437;28;20027;-78
2023/07/10 03:11:06;;;;;;;12.30;4.25;;;;;;;16.61;70.46;94469.75;5061069;28;20104;-78
2023/07/10 03:13:32;;;;;;;6.40;3.35;;;;;;;16.56;70.76;94475.34;5061173;28;20024;-78
2023/07/10 03:16:07;;;;;;;7.82;4.00;;;;;;;16.57;71.04;94477.69;5061124;28;20059;-79
2023/07/10 03:18:32;;;;;;;12.60;3.70;;;;;;;16.56;71.05;94470.72;5062384;28;20196;-78
2023/07/10 03:20:58;;;;;;;6.25;3.40;;;;;;;16.59;70.66;94480.06;5062248;28;20092;-78
2023/07/10 03:23:23;;;;;;;6.13;3.60;;;;;;;16.59;71.29;94478.16;5061994;28;20021;-77
2023/07/10 03:25:49;;;;;;;9.18;4.57;;;;;;;16.61;70.78;94473.22;5062100;28;20024;-79
2023/07/10 03:28:15;;;;;;;15.68;4.30;;;;;;;16.63;70.74;94478.28;5061998;28;20028;-78
2023/07/10 03:30:41;;;;;;;9.15;3.55;;;;;;;16.61;70.88;94483.19;5060777;28;20505;-78
2023/07/10 03:33:06;;;;;;;9.63;3.78;;;;;;;16.61;71.25;94478.59;5061127;28;20092;-78
2023/07/10 03:35:32;;;;;;;20.70;4.20;;;;;;;16.63;71.35;94481.75;5059823;28;20040;-79
2023/07/10 03:37:57;;;;;;;17.80;4.32;;;;;;;16.69;71.78;94478.81;5061754;28;20319;-77
2023/07/10 03:40:23;;;;;;;8.32;3.80;;;;;;;16.76;71.07;94489.81;5061763;28;20311;-79
2023/07/10 03:42:48;;;;;;;12.85;4.30;;;;;;;16.76;70.94;94481.75;5061848;28;20039;-78
2023/07/10 03:45:14;;;;;;;7.45;4.07;;;;;;;16.77;70.26;94492.19;5061863;28;20033;-78
2023/07/10 03:47:39;;;;;;;16.83;5.05;;;;;;;16.81;69.52;94481.53;5063533;28;20025;-79
2023/07/10 03:50:06;;;;;;;14.18;3.75;;;;;;;16.78;69.31;94482.19;5065640;28;20108;-78
2023/07/10 03:52:31;;;;;;;9.13;3.88;;;;;;;16.86;69.35;94492.09;5065460;28;20021;-79
2023/07/10 03:54:57;;;;;;;7.57;4.13;;;;;;;16.89;68.45;94498.69;5065660;28;20044;-78
2023/07/10 03:57:22;;;;;;;9.80;4.50;;;;;;;16.89;68.97;94496.78;5065637;28;20066;-80
2023/07/10 03:59:47;;;;;;;10.07;4.28;;;;;;;16.93;68.77;94504.97;5065435;28;20203;-78
2023/07/10 04:02:13;;;;;;;12.48;4.47;;;;;;;16.98;68.61;94502.84;5065435;28;20083;-78
2023/07/10 04:04:38;;;;;;;9.27;4.63;;;;;;;16.94;68.58;94509.25;5065290;28;20338;-77
2023/07/10 04:07:04;;;;;;;13.65;4.60;;;;;;;17.02;67.85;94509.13;5065425;28;20164;-78
2023/07/10 04:09:29;;;;;;;6.07;3.85;;;;;;;17.09;67.23;94513.94;5065210;28;20043;-77
2023/07/10 04:11:55;;;;;;;11.30;4.22;;;;;;;17.14;67.79;94518.34;5065245;28;20028;-78
2023/07/10 04:14:20;;;;;;;10.70;4.13;;;;;;;17.10;67.95;94512.84;5065416;28;20021;-78
2023/07/10 04:16:52;;;;;;;10.50;4.53;;;;;;;17.17;67.84;94514.94;5065286;28;20063;-78
2023/07/10 04:19:18;;;;;;;11.02;5.25;;;;;;;17.21;67.41;94511.22;5063947;28;20032;-78
2023/07/10 04:21:44;;;;;;;20.92;5.22;;;;;;;17.27;67.67;94503.72;5064034;28;20105;-78
2023/07/10 04:24:09;;;;;;;11.10;4.05;;;;;;;17.29;67.23;94511.47;5065079;28;20020;-78
2023/07/10 04:26:35;;;;;;;10.13;5.28;;;;;;;17.37;66.74;94502.47;5064833;28;20044;-78
2023/07/10 04:29:03;;;;;;;9.50;4.80;;;;;;;17.34;66.58;94514.72;5063997;28;20099;-79
2023/07/10 04:31:29;;;;;;;12.40;4.80;;;;;;;17.38;66.59;94502.13;5064951;28;20028;-78
2023/07/10 04:33:56;;;;;;;9.93;4.90;;;;;;;17.43;67.04;94509.97;5064874;28;20555;-78
2023/07/10 04:36:22;;;;;;;12.55;5.10;;;;;;;17.38;67.28;94499.44;5064980;28;20031;-80
2023/07/10 04:38:48;;;;;;;13.00;4.80;;;;;;;17.45;67.55;94499.63;5065135;28;20029;-80
2023/07/10 04:41:17;;;;;;;10.25;4.90;;;;;;;17.54;67.07;94510.28;5064908;28;20039;-78
2023/07/10 04:43:44;;;;;;;10.85;6.25;;;;;;;17.61;67.14;94513.19;5063598;28;20033;-77
2023/07/10 04:46:11;;;;;;;11.93;5.70;;;;;;;17.67;66.86;94511.03;5064816;28;20343;-77
2023/07/10 04:48:37;;;;;;;19.00;5.00;;;;;;;17.64;67.27;94509.00;5064823;28;20025;-76
2023/07/10 04:51:04;;;;;;;12.88;5.18;;;;;;;17.74;67.71;94511.22;5064986;28;20024;-78
2023/07/10 04:53:31;;;;;;;15.75;4.43;;;;;;;17.84;67.20;94518.09;5064645;28;20057;-78
2023/07/10 04:55:57;;;;;;;16.67;5.20;;;;;;;17.90;67.39;94514.00;5064707;28;20107;-79
2023/07/10 04:58:23;;;;;;;15.05;4.72;;;;;;;18.01;67.00;94515.09;5063950;28;20410;-79
2023/07/10 05:00:56;;;;;;;20.58;5.13;;;;;;;18.05;66.62;94515.19;5064215;28;20024;-80
2023/07/10 05:03:22;;;;;;;15.00;5.43;;;;;;;18.06;66.87;94503.28;5064531;28;20360;-79
2023/07/10 05:05:58;;;;;;;12.05;4.65;;;;;;;18.14;66.62;94502.34;5064445;28;20211;-79
2023/07/10 05:08:25;;;;;;;16.05;5.25;;;;;;;18.24;66.91;94507.22;5064682;28;20254;-79
2023/07/10 05:10:54;;;;;;;9.88;4.18;;;;;;;18.31;66.63;94506.63;5064149;28;20068;-79
2023/07/10 05:13:21;;;;;;;23.40;4.88;;;;;;;18.49;66.62;94496.28;5064341;28;20047;-80
2023/07/10 05:15:47;;;;;;;10.68;4.45;;;;;;;18.58;66.37;94506.91;5064210;28;20099;-80
2023/07/10 05:18:13;;;;;;;18.40;6.38;;;;;;;18.73;65.08;94502.66;5064130;28;20043;-79
2023/07/10 05:20:39;;;;;;;17.80;4.50;;;;;;;18.85;64.41;94505.28;5064158;28;20035;-80
2023/07/10 05:23:06;;;;;;;18.17;4.57;;;;;;;19.05;64.93;94514.25;5064323;28;20020;-79
2023/07/10 05:25:32;;;;;;;10.52;4.07;;;;;;;19.18;63.46;94514.94;5064009;28;20361;-80
2023/07/10 05:27:58;;;;;;;11.85;4.22;;;;;;;19.31;61.99;94521.00;5062823;28;20021;-80
2023/07/10 05:30:23;;;;;;;14.38;4.35;;;;;;;19.41;62.72;94521.22;5063587;28;20095;-78
2023/07/10 05:32:49;;;;;;;20.70;4.20;;;;;;;19.47;62.24;94504.75;5063745;28;20044;-77
2023/07/10 05:35:14;;;;;;;15.65;4.75;;;;;;;19.59;63.58;94508.09;5063843;28;20253;-77
2023/07/10 05:37:40;;;;;;;7.10;3.58;;;;;;;19.71;58.83;94509.91;5063493;28;20047;-77
2023/07/10 05:40:06;;;;;;;16.98;4.18;;;;;;;19.90;59.74;94511.06;5063820;28;20058;-78
2023/07/10 05:42:31;;;;;;;14.48;3.30;;;;;;;20.04;58.65;94511.34;5063891;28;20071;-78
2023/07/10 05:44:57;;;;;;;8.30;3.42;;;;;;;20.15;58.41;94515.03;5063552;28;20017;-77
2023/07/10 05:47:22;;;;;;;12.93;3.95;;;;;;;20.28;58.18;94521.06;5063527;28;20311;-77
2023/07/10 05:49:48;;;;;;;6.75;3.63;;;;;;;20.39;57.60;94518.56;5063468;28;20021;-78
2023/07/10 05:52:13;;;;;;;7.93;3.53;;;;;;;20.49;54.00;94509.84;5063335;28;20216;-78
2023/07/10 05:54:39;;;;;;;7.55;3.10;;;;;;;20.61;54.11;94506.97;5063175;28;20094;-78
2023/07/10 05:57:04;;;;;;;11.77;3.45;;;;;;;20.70;56.79;94503.25;5063444;28;20307;-78
2023/07/10 05:59:30;;;;;;;7.00;3.22;;;;;;;20.75;55.00;94506.44;5063251;28;20100;-77
2023/07/10 06:01:56;;;;;;;6.25;3.70;;;;;;;20.84;53.98;94512.41;5063302;28;20020;-77
2023/07/10 06:04:22;;;;;;;4.95;3.05;;;;;;;20.96;53.79;94514.13;5063165;28;20092;-77
2023/07/10 06:06:48;;;;;;;9.40;3.25;;;;;;;21.04;54.41;94518.53;5063260;28;20063;-77
2023/07/10 06:09:14;;;;;;;18.05;3.80;;;;;;;21.03;52.58;94508.81;5063282;28;20299;-77
2023/07/10 06:11:40;;;;;;;7.20;3.45;;;;;;;21.12;51.92;94513.22;5062078;28;20017;-77
2023/07/10 06:14:06;;;;;;;14.63;3.45;;;;;;;21.20;51.60;94525.72;5062880;28;20044;-76
2023/07/10 06:16:31;;;;;;;5.85;2.85;;;;;;;21.24;52.16;94521.91;5063317;28;20059;-77
2023/07/10 06:18:57;;;;;;;7.45;3.15;;;;;;;21.35;52.22;94513.97;5063072;28;20311;-76
2023/07/10 06:21:22;;;;;;;9.98;3.55;;;;;;;21.53;54.97;94513.44;5062860;28;20017;-76
2023/07/10 06:23:48;;;;;;;5.38;2.80;;;;;;;21.66;50.75;94517.50;5062636;28;20192;-76
2023/07/10 06:26:13;;;;;;;20.67;3.58;;;;;;;21.73;51.71;94509.44;5062578;28;20036;-76
2023/07/10 06:28:39;;;;;;;8.43;3.25;;;;;;;21.82;52.21;94518.09;5062242;28;20016;-76
2023/07/10 06:31:10;;;;;;;13.13;3.45;;;;;;;21.98;50.66;94504.34;5062352;28;20218;-76
2023/07/10 06:33:36;;;;;;;6.55;3.50;;;;;;;22.08;50.02;94516.44;5062184;28;20017;-76
2023/07/10 06:36:04;;;;;;;9.98;3.67;;;;;;;22.10;50.50;94519.56;5061318;28;20043;-78
2023/07/10 06:38:30;;;;;;;10.45;3.90;;;;;;;22.09;49.70;94518.03;5062167;28;20028;-79
2023/07/10 06:40:56;;;;;;;6.78;2.88;;;;;;;22.09;50.41;94517.25;5062561;28;20045;-79
2023/07/10 06:43:23;;;;;;;30.35;5.35;;;;;;;22.12;50.93;94522.69;5062658;28;20029;-78
2023/07/10 06:45:49;;;;;;;16.35;3.97;;;;;;;22.18;50.15;94528.59;5062679;28;20219;-77
2023/07/10 06:48:14;;;;;;;7.28;2.70;;;;;;;22.24;50.68;94527.91;5062921;28;20029;-77
2023/07/10 06:50:40;;;;;;;9.30;3.55;;;;;;;22.20;49.35;94534.44;5063296;28;20281;-77
2023/07/10 06:53:06;;;;;;;9.32;3.33;;;;;;;22.15;49.63;94521.97;5062575;28;20354;-77
2023/07/10 06:55:32;;;;;;;12.15;4.00;;;;;;;22.15;50.89;94529.34;5063041;28;20323;-78
2023/07/10 06:57:58;;;;;;;15.93;4.45;;;;;;;22.19;50.77;94530.94;5062626;28;20025;-80
2023/07/10 07:00:23;;;;;;;10.10;3.88;;;;;;;22.33;50.72;94518.72;5062522;28;20025;-78
2023/07/10 07:02:49;;;;;;;7.05;3.13;;;;;;;22.38;49.71;94521.06;5061469;28;20032;-78
2023/07/10 07:05:15;;;;;;;9.75;3.30;;;;;;;22.41;49.43;94521.13;5062433;28;20032;-77
2023/07/10 07:07:40;;;;;;;7.45;3.13;;;;;;;22.41;49.45;94523.06;5062440;28;20086;-78
2023/07/10 07:10:13;;;;;;;6.93;2.88;;;;;;;22.44;50.31;94520.38;5062481;28;20082;-78
2023/07/10 07:12:39;;;;;;;6.47;2.88;;;;;;;22.52;50.05;94523.94;5062498;28;20025;-78
2023/07/10 07:15:06;;;;;;;12.57;3.13;;;;;;;22.47;49.74;94518.84;5062406;28;20048;-78
2023/07/10 07:17:32;;;;;;;7.40;3.08;;;;;;;22.55;49.17;94519.69;5062420;28;20024;-78
2023/07/10 07:19:57;;;;;;;9.30;3.58;;;;;;;22.60;49.22;94522.84;5061033;28;20021;-78
2023/07/10 07:22:22;;;;;;;8.23;2.92;;;;;;;22.60;49.02;94511.97;5063597;28;20043;-78
2023/07/10 07:24:48;;;;;;;7.45;3.55;;;;;;;22.65;49.37;94513.56;5065266;28;20029;-79
2023/07/10 07:27:14;;;;;;;9.20;3.47;;;;;;;22.72;49.64;94519.09;5066031;28;20084;-80
2023/07/10 07:29:39;;;;;;;8.60;3.58;;;;;;;22.74;49.97;94510.56;5066568;28;20020;-80
2023/07/10 07:32:05;;;;;;;6.03;3.20;;;;;;;22.77;49.79;94516.00;5066664;28;20031;-80
2023/07/10 07:34:30;;;;;;;10.88;3.42;;;;;;;22.85;48.31;94511.44;5066605;28;20032;-80
2023/07/10 07:36:56;;;;;;;9.18;4.10;;;;;;;22.96;47.86;94506.06;5066285;28;20024;-80
2023/07/10 07:39:22;;;;;;;6.45;3.50;;;;;;;23.06;50.32;94515.50;5064867;28;20028;-79
2023/07/10 07:41:48;;;;;;;9.95;2.88;;;;;;;23.18;48.42;94509.75;5066332;28;20021;-78
2023/07/10 07:44:13;;;;;;;4.50;2.67;;;;;;;23.25;47.04;94509.81;5066146;28;20254;-79
2023/07/10 07:46:39;;;;;;;6.60;3.22;;;;;;;23.30;47.08;94512.19;5066180;28;20028;-79
2023/07/10 07:52:10;;;;;;;5.50;2.83;;;;;;;23.34;46.45;94504.81;5065642;28;20027;-80
2023/07/10 07:54:35;;;;;;;8.27;3.15;;;;;;;23.38;48.22;94508.34;5065512;28;20053;-80
2023/07/10 07:57:01;;;;;;;8.60;3.30;;;;;;;23.42;48.17;94509.16;5066100;28;20047;-76
2023/07/10 07:59:26;;;;;;;9.57;3.20;;;;;;;23.47;47.43;94507.22;5065524;28;20025;-76
2023/07/10 08:01:52;;;;;;;6.10;3.00;;;;;;;23.50;47.21;94504.53;5065746;28;20124;-75
2023/07/10 08:04:19;;;;;;;8.40;3.13;;;;;;;23.60;45.28;94505.75;5065409;28;20036;-76
2023/07/10 08:06:47;;;;;;;8.35;2.65;;;;;;;23.61;45.21;94502.66;5065566;28;20234;-77
2023/07/10 08:09:12;;;;;;;5.05;2.83;;;;;;;23.64;46.13;94501.13;5065704;28;20020;-76
2023/07/10 08:11:37;;;;;;;4.20;2.50;;;;;;;23.77;44.45;94499.66;5065549;28;20029;-75
2023/07/10 08:14:03;;;;;;;7.00;2.88;;;;;;;23.81;45.41;94496.94;5065420;28;20025;-76
2023/07/10 08:16:28;;;;;;;6.95;2.95;;;;;;;23.89;46.19;94495.03;5064375;28;20219;-75
2023/07/10 08:18:54;;;;;;;4.38;2.42;;;;;;;23.89;46.53;94501.25;5065495;28;20060;-75
2023/07/10 08:21:19;;;;;;;7.80;3.13;;;;;;;23.87;44.52;94498.13;5065318;28;20027;-75
2023/07/10 08:23:45;;;;;;;8.63;2.85;;;;;;;23.98;44.74;94498.19;5065372;28;20127;-76
2023/07/10 08:26:11;;;;;;;12.68;3.42;;;;;;;24.11;45.69;94490.47;5064917;28;20219;-74
2023/07/10 08:28:36;;;;;;;15.85;3.20;;;;;;;24.13;44.84;94496.28;5065100;28;20048;-74
2023/07/10 08:31:02;;;;;;;12.30;2.83;;;;;;;24.10;46.05;94488.88;5065452;28;20374;-75
2023/07/10 08:33:28;;;;;;;6.35;2.53;;;;;;;24.16;44.27;94493.59;5064169;28;20259;-75
2023/07/10 08:36:12;;;;;;;4.63;2.60;;;;;;;24.18;45.17;94485.81;5064631;28;20028;-74
2023/07/10 08:38:38;;;;;;;4.63;2.47;;;;;;;24.31;43.88;94497.13;5065061;28;20020;-74
2023/07/10 08:41:16;;;;;;;4.22;2.80;;;;;;;24.35;42.98;94494.41;5065080;28;20021;-74
2023/07/10 08:43:43;;;;;;;6.82;3.08;;;;;;;24.39;42.57;94492.47;5065070;28;20037;-76
2023/07/10 08:46:18;;;;;;;6.63;2.83;;;;;;;24.45;42.90;94493.66;5064714;28;20025;-74
2023/07/10 08:49:09;;;;;;;7.72;3.30;;;;;;;24.53;41.68;94502.66;5064832;28;20036;-78
2023/07/10 08:51:35;;;;;;;4.25;2.28;;;;;;;24.52;41.67;94499.13;5063716;28;20028;-76
2023/07/10 08:54:09;;;;;;;7.57;3.10;;;;;;;24.50;41.78;94485.13;5064185;28;20136;-75
2023/07/10 08:56:43;;;;;;;9.60;3.25;;;;;;;24.65;40.15;94506.94;5064708;28;20383;-76
2023/07/10 08:59:35;;;;;;;3.95;2.33;;;;;;;24.69;41.53;94497.63;5064632;28;20028;-76
2023/07/10 09:02:00;;;;;;;5.78;2.90;;;;;;;24.80;41.37;94497.63;5060926;28;20035;-80
2023/07/10 09:04:28;;;;;;;9.15;2.55;;;;;;;24.85;40.31;94494.50;5063156;28;20021;-80
2023/07/10 09:06:58;;;;;;;6.00;3.42;;;;;;;24.88;39.99;94492.97;5062512;28;20025;-80
2023/07/10 09:09:55;;;;;;;4.45;2.67;;;;;;;25.05;41.23;94478.53;5062512;28;20317;-80
2023/07/10 09:12:35;;;;;;;6.22;2.78;;;;;;;25.26;41.65;94477.78;5060855;28;20108;-80
2023/07/10 09:15:07;;;;;;;6.68;2.67;;;;;;;25.22;39.25;94477.78;5063417;28;20035;-80
2023/07/10 09:17:41;;;;;;;;;;;;;;;25.22;38.07;94477.78;5064369;28;20051;-80
2023/07/10 09:20:10;;;;;;;3.88;2.05;;;;;;;25.07;37.85;94478.16;5063263;28;19923;-80
2023/07/10 09:22:38;;;;;;;4.05;2.35;;;;;;;25.09;39.16;94479.31;5063002;28;20051;-80
2023/07/10 09:25:14;;;;;;;6.85;3.35;;;;;;;25.23;38.90;94475.81;5062808;28;20040;-80
2023/07/10 09:27:44;;;;;;;5.38;2.55;;;;;;;25.39;38.72;94476.19;5062526;28;20025;-80
2023/07/10 09:30:34;;;;;;;5.25;2.72;;;;;;;25.46;38.98;94471.88;5062410;28;20086;-80
2023/07/10 09:33:05;;;;;;;5.47;2.85;;;;;;;25.52;38.07;94475.75;5062609;28;20369;-80
2023/07/10 09:35:33;;;;;;;4.88;2.75;;;;;;;25.67;37.60;94477.28;5061614;28;20020;-80
2023/07/10 09:38:00;;;;;;;5.45;2.42;;;;;;;25.80;37.64;94475.66;5062356;28;20024;-80
2023/07/10 09:40:43;;;;;;;4.50;2.47;;;;;;;25.95;37.13;94481.09;5062239;28;20020;-80
2023/07/10 09:43:22;;;;;;;8.95;2.92;;;;;;;25.94;37.43;94479.56;5062814;28;20035;-80
2023/07/10 09:45:56;;;;;;;6.13;2.28;;;;;;;25.96;38.00;94472.50;5063632;28;20021;-80
2023/07/10 09:48:35;;;;;;;4.57;2.75;;;;;;;25.97;37.93;94467.81;5064192;28;20021;-80
2023/07/10 09:51:03;;;;;;;5.03;2.50;;;;;;;25.94;36.48;94461.22;5064378;28;20043;-80
2023/07/10 09:53:44;;;;;;;4.55;2.45;;;;;;;25.82;36.87;94478.78;5063742;28;20041;-80
2023/07/10 09:56:18;;;;;;;3.10;2.10;;;;;;;25.69;35.91;94468.72;5064054;28;20033;-79
2023/07/10 09:58:46;;;;;;;4.22;1.92;;;;;;;25.67;37.87;94469.09;5063885;28;20028;-80
2023/07/10 10:01:13;;;;;;;4.25;2.30;;;;;;;25.72;38.02;94465.94;5063705;28;20281;-80
2023/07/10 10:03:43;;;;;;;4.30;2.22;;;;;;;25.74;37.08;94455.41;5063540;28;20021;-80
2023/07/10 10:06:21;;;;;;;6.22;2.33;;;;;;;25.93;37.10;94450.69;5063742;28;20048;-80
2023/07/10 10:08:48;;;;;;;6.03;2.58;;;;;;;25.76;34.98;94453.06;5063565;28;20021;-79
2023/07/10 10:11:14;;;;;;;3.40;1.80;;;;;;;25.77;31.49;94442.94;5063482;28;20025;-79
2023/07/10 10:13:56;;;;;;;7.60;2.47;;;;;;;25.62;31.91;94443.00;5063602;28;20021;-80
2023/07/10 10:16:37;;;;;;;10.50;2.17;;;;;;;25.58;30.21;94435.97;5063440;28;20016;-80
2023/07/10 10:19:34;;;;;;;4.47;2.08;;;;;;;25.59;30.89;94435.56;5063273;28;20032;-79
2023/07/10 10:21:59;;;;;;;3.72;1.98;;;;;;;25.73;31.00;94421.09;5061431;28;20343;-79
2023/07/10 10:24:28;;;;;;;8.60;2.03;;;;;;;25.95;30.85;94426.47;5063248;28;20052;-80
2023/07/10 10:27:13;;;;;;;5.03;2.38;;;;;;;26.13;31.09;94413.50;5063291;28;20316;-80
2023/07/10 10:30:07;;;;;;;4.10;1.90;;;;;;;26.20;33.80;94424.41;5063369;28;20227;-80
2023/07/10 10:32:42;;;;;;;5.68;2.42;;;;;;;26.21;31.52;94419.72;5063203;28;20023;-80
2023/07/10 10:35:08;;;;;;;4.82;2.15;;;;;;;26.22;34.19;94424.00;5063040;28;20318;-78
2023/07/10 10:37:51;;;;;;;4.38;2.35;;;;;;;26.23;33.09;94425.53;5061880;28;20040;-80
2023/07/10 10:40:29;;;;;;;4.95;1.95;;;;;;;26.23;31.65;94420.84;5063160;28;20021;-79
2023/07/10 10:42:59;;;;;;;6.82;2.03;;;;;;;26.21;30.55;94425.94;5062978;28;20033;-79
2023/07/10 10:45:37;;;;;;;4.18;1.95;;;;;;;26.29;30.93;94423.19;5062958;28;20048;-79
2023/07/10 10:48:04;;;;;;;4.32;2.20;;;;;;;26.32;30.56;94422.38;5061926;28;20032;-79
2023/07/10 10:51:03;;;;;;;4.55;2.38;;;;;;;26.29;31.58;94409.50;5062657;28;20242;-79
2023/07/10 10:53:50;;;;;;;4.20;1.85;;;;;;;26.33;32.81;94411.03;5062643;28;20108;-80
2023/07/10 10:56:22;;;;;;;5.47;2.20;;;;;;;26.38;31.18;94420.78;5062646;28;20029;-79
2023/07/10 10:59:15;;;;;;;5.25;2.30;;;;;;;26.36;32.46;94412.22;5062691;28;20016;-79
2023/07/10 11:01:53;;;;;;;5.03;2.03;;;;;;;26.48;32.82;94403.53;5062884;28;20029;-79
2023/07/10 11:04:25;;;;;;;3.50;2.30;;;;;;;26.55;29.38;94402.69;5062708;28;20047;-79
2023/07/10 11:06:54;;;;;;;;;;;;;;;26.41;30.97;94404.34;5063257;28;20032;-79
2023/07/10 11:09:37;;;;;;;4.88;2.13;;;;;;;26.40;31.46;94402.81;5062823;28;19904;-79
2023/07/10 11:12:04;;;;;;;16.10;2.72;;;;;;;26.54;33.80;94392.94;5062572;28;20033;-80
2023/07/10 11:14:29;;;;;;;3.10;1.92;;;;;;;26.60;32.18;94394.09;5062854;28;20044;-80
2023/07/10 11:16:56;;;;;;;6.05;2.58;;;;;;;26.75;32.21;94394.75;5062806;28;20251;-80
2023/07/10 11:19:28;;;;;;;8.38;3.83;;;;;;;26.90;30.72;94389.94;5062623;28;20040;-80
2023/07/10 11:21:54;;;;;;;5.38;2.53;;;;;;;27.02;30.22;94398.41;5062531;28;20054;-79
2023/07/10 11:24:25;;;;;;;6.28;2.28;;;;;;;27.17;29.90;94388.09;5062550;28;20040;-80
2023/07/10 11:26:52;;;;;;;4.70;2.55;;;;;;;27.25;31.39;94388.81;5062411;28;20025;-80
2023/07/10 11:29:28;;;;;;;5.07;2.15;;;;;;;27.37;32.14;94395.72;5062546;28;20315;-80
2023/07/10 11:31:56;;;;;;;5.00;2.38;;;;;;;27.34;30.16;94385.63;5062435;28;20025;-79
2023/07/10 11:34:21;;;;;;;6.43;2.10;;;;;;;27.35;30.56;94376.97;5062589;28;20045;-80
2023/07/10 11:36:47;;;;;;;6.57;2.38;;;;;;;27.44;30.52;94392.13;5062376;28;20047;-79
2023/07/10 11:39:20;;;;;;;3.22;2.20;;;;;;;27.36;27.94;94386.75;5062343;28;20035;-80
2023/07/10 11:41:45;;;;;;;3.83;2.17;;;;;;;27.39;27.91;94382.41;5062528;28;20028;-79